createdAt,value
2022-10-01T00:03:07.061Z,80.23
2022-10-01T00:08:09.823Z,78.48
2022-10-01T00:13:12.270Z,80.38
2022-10-01T00:18:14.824Z,81.23
2022-10-01T00:23:24.658Z,81.84
2022-10-01T00:28:27.899Z,79.23
2022-10-01T00:33:30.480Z,79.07
2022-10-01T00:38:34.053Z,80.15
2022-10-01T00:43:42.812Z,79.77
2022-10-01T00:49:01.203Z,80.74
2022-10-01T00:54:18.416Z,79.52
2022-10-01T00:59:21.303Z,79.41
2022-10-01T01:04:23.757Z,79.52
2022-10-01T01:09:35.752Z,78.89
2022-10-01T01:14:48.941Z,79.07
2022-10-01T01:20:12.981Z,80.10
2022-10-01T01:25:18.942Z,80.79
2022-10-01T01:30:21.520Z,82.27
2022-10-01T01:42:39.867Z,82.78
2022-10-01T01:47:44.954Z,82.72
2022-10-01T01:52:47.456Z,86.48
2022-10-01T01:57:51.490Z,87.63
2022-10-01T02:02:57.187Z,91.27
2022-10-01T02:08:15.877Z,94.67
2022-10-01T02:13:38.999Z,92.88
2022-10-01T02:19:05.257Z,95.06
2022-10-01T02:24:43.942Z,96.35
2022-10-01T02:29:49.772Z,97.62
2022-10-01T02:34:57.791Z,100.00
2022-10-01T02:40:02.820Z,100.00
2022-10-01T02:45:07.912Z,100.00
2022-10-01T02:50:16.926Z,100.00
2022-10-01T02:55:33.915Z,100.00
2022-10-01T03:00:37.409Z,100.00
2022-10-01T03:05:40.878Z,100.00
2022-10-01T03:10:46.585Z,100.00
2022-10-01T03:15:50.021Z,100.00
2022-10-01T03:20:54.923Z,100.00
2022-10-01T03:25:59.726Z,100.00
2022-10-01T03:36:34.583Z,100.00
2022-10-01T03:41:37.978Z,100.00
2022-10-01T03:46:40.526Z,100.00
2022-10-01T03:51:43.190Z,100.00
2022-10-01T03:56:50.604Z,100.00
2022-10-01T04:01:55.380Z,100.00
2022-10-01T04:06:57.989Z,100.00
2022-10-01T04:12:03.464Z,100.00
2022-10-01T04:17:05.993Z,100.00
2022-10-01T04:22:08.527Z,100.00
2022-10-01T04:27:13.791Z,100.00
2022-10-01T04:32:27.717Z,100.00
2022-10-01T04:37:31.284Z,100.00
2022-10-01T04:42:33.777Z,100.00
2022-10-01T04:47:37.710Z,100.00
2022-10-01T04:52:42.547Z,100.00
2022-10-01T04:57:50.711Z,100.00
2022-10-01T05:02:55.279Z,100.00
2022-10-01T05:08:00.114Z,100.00
2022-10-01T05:13:02.949Z,100.00
2022-10-01T05:18:08.212Z,100.00
2022-10-01T05:23:15.502Z,100.00
2022-10-01T05:28:22.774Z,100.00
2022-10-01T05:33:31.264Z,100.00
2022-10-01T05:38:47.697Z,100.00
2022-10-01T05:43:51.356Z,100.00
2022-10-01T05:48:53.988Z,100.00
2022-10-01T05:53:59.187Z,100.00
2022-10-01T05:59:04.481Z,100.00
2022-10-01T06:04:11.624Z,100.00
2022-10-01T06:09:14.497Z,100.00
2022-10-01T06:14:19.638Z,100.00
2022-10-01T06:19:24.004Z,100.00
2022-10-01T06:24:26.953Z,100.00
2022-10-01T06:29:29.472Z,100.00
2022-10-01T06:34:32.051Z,100.00
2022-10-01T06:40:44.784Z,100.00
2022-10-01T06:45:47.525Z,100.00
2022-10-01T06:50:53.549Z,100.00
2022-10-01T06:55:57.206Z,100.00
2022-10-01T07:01:02.320Z,100.00
2022-10-01T07:06:08.070Z,98.27
2022-10-01T07:11:20.203Z,95.28
2022-10-01T07:16:22.736Z,96.87
2022-10-01T07:21:25.260Z,97.01
2022-10-01T07:26:29.472Z,98.10
2022-10-01T07:31:33.417Z,97.65
2022-10-01T07:36:36.205Z,95.26
2022-10-01T07:41:39.076Z,95.16
2022-10-01T07:46:41.818Z,96.19
2022-10-01T07:51:44.317Z,96.86
2022-10-01T07:56:46.836Z,93.18
2022-10-01T08:01:51.854Z,95.04
2022-10-01T08:06:54.513Z,93.25
2022-10-01T08:11:57.008Z,90.19
2022-10-01T08:16:59.607Z,75.21
2022-10-01T08:22:01.923Z,73.91
2022-10-01T08:27:04.383Z,78.90
2022-10-01T08:32:09.457Z,82.32
2022-10-01T08:37:13.785Z,86.84
2022-10-01T08:42:49.475Z,83.71
2022-10-01T08:48:21.758Z,83.98
2022-10-01T08:53:41.895Z,82.84
2022-10-01T08:58:48.662Z,85.94
2022-10-01T09:03:51.269Z,88.16
2022-10-01T09:09:18.749Z,83.21
2022-10-01T09:14:29.343Z,82.71
2022-10-01T09:19:54.336Z,82.85
2022-10-01T09:25:16.503Z,83.83
2022-10-01T09:30:23.575Z,80.63
2022-10-01T09:35:35.257Z,78.46
2022-10-01T09:40:52.520Z,77.42
2022-10-01T09:45:57.536Z,76.21
2022-10-01T09:51:14.464Z,76.00
2022-10-01T09:56:29.904Z,74.43
2022-10-01T10:01:42.679Z,74.10
2022-10-01T10:06:49.426Z,71.02
2022-10-01T10:11:51.843Z,67.21
2022-10-01T10:16:55.974Z,68.12
2022-10-01T10:22:09.517Z,70.51
2022-10-01T10:27:31.274Z,70.76
2022-10-01T10:32:43.153Z,71.50
2022-10-01T10:37:55.888Z,69.93
2022-10-01T10:43:00.805Z,66.09
2022-10-01T10:48:05.702Z,59.90
2022-10-01T10:53:34.666Z,59.48
2022-10-01T10:58:40.438Z,58.54
2022-10-01T11:03:45.038Z,56.07
2022-10-01T11:08:57.297Z,54.33
2022-10-01T11:14:13.876Z,55.03
2022-10-01T11:19:22.256Z,54.49
2022-10-01T11:24:33.172Z,52.96
2022-10-01T11:29:38.197Z,52.11
2022-10-01T11:34:40.406Z,51.39
2022-10-01T11:45:14.136Z,53.83
2022-10-01T11:50:25.835Z,54.68
2022-10-01T11:55:56.873Z,54.39
2022-10-01T12:01:04.154Z,53.14
2022-10-01T12:06:09.517Z,55.33
2022-10-01T12:11:24.987Z,58.25
2022-10-01T12:16:45.822Z,55.80
2022-10-01T12:22:11.824Z,53.84
2022-10-01T12:27:27.655Z,55.42
2022-10-01T12:32:36.569Z,53.68
2022-10-01T12:37:58.494Z,57.60
2022-10-01T12:43:14.645Z,55.64
2022-10-01T12:48:26.034Z,47.71
2022-10-01T12:53:37.161Z,45.98
2022-10-01T12:58:39.402Z,43.90
2022-10-01T13:03:53.587Z,44.68
2022-10-01T13:09:00.953Z,47.99
2022-10-01T13:14:04.501Z,48.33
2022-10-01T13:19:14.658Z,48.91
2022-10-01T13:24:24.165Z,48.16
2022-10-01T13:29:36.197Z,50.88
2022-10-01T13:34:49.178Z,53.21
2022-10-01T13:39:51.565Z,51.29
2022-10-01T13:44:58.732Z,41.97
2022-10-01T13:50:04.923Z,41.76
2022-10-01T13:55:25.802Z,39.55
2022-10-01T14:00:28.164Z,44.08
2022-10-01T14:05:39.719Z,45.62
2022-10-01T14:11:10.462Z,47.10
2022-10-01T14:16:15.190Z,48.87
2022-10-01T14:21:17.485Z,50.10
2022-10-01T14:26:37.621Z,51.75
2022-10-01T14:31:50.138Z,51.39
2022-10-01T14:36:54.397Z,52.74
2022-10-01T14:41:58.864Z,52.09
2022-10-01T14:47:11.806Z,52.55
2022-10-01T14:52:23.423Z,55.93
2022-10-01T14:57:28.089Z,56.09
2022-10-01T15:02:30.497Z,52.78
2022-10-01T15:07:36.673Z,53.32
2022-10-01T15:12:41.589Z,56.45
2022-10-01T15:17:43.998Z,57.32
2022-10-01T15:22:48.943Z,56.55
2022-10-01T15:27:54.244Z,56.76
2022-10-01T15:32:56.846Z,56.77
2022-10-01T15:38:00.855Z,53.80
2022-10-01T15:43:15.646Z,55.66
2022-10-01T15:48:30.782Z,56.47
2022-10-01T15:53:34.857Z,55.81
2022-10-01T15:59:12.791Z,55.39
2022-10-01T16:04:18.840Z,55.88
2022-10-01T16:09:25.139Z,57.03
2022-10-01T16:14:38.978Z,57.43
2022-10-01T16:19:44.987Z,57.96
2022-10-01T16:24:54.789Z,59.27
2022-10-01T16:30:05.306Z,59.09
2022-10-01T16:35:21.716Z,60.32
2022-10-01T16:40:50.003Z,59.92
2022-10-01T16:45:50.601Z,58.17
2022-10-01T16:50:54.009Z,59.33
2022-10-01T16:55:58.462Z,60.42
2022-10-01T17:01:06.810Z,65.41
2022-10-01T17:06:09.411Z,68.74
2022-10-01T17:11:12.873Z,66.60
2022-10-01T17:16:19.443Z,66.32
2022-10-01T17:21:25.183Z,67.95
2022-10-01T17:26:28.099Z,69.04
2022-10-01T17:31:33.945Z,66.65
2022-10-01T17:36:39.073Z,65.50
2022-10-01T17:41:41.348Z,66.39
2022-10-01T17:46:45.243Z,67.05
2022-10-01T17:51:51.711Z,69.36
2022-10-01T17:57:09.071Z,70.50
2022-10-01T18:02:36.775Z,68.43
2022-10-01T18:07:37.374Z,67.53
2022-10-01T18:12:40.836Z,65.87
2022-10-01T18:17:51.381Z,65.84
2022-10-01T18:22:56.508Z,63.17
2022-10-01T18:27:58.879Z,63.55
2022-10-01T18:33:03.337Z,64.59
2022-10-01T18:38:24.401Z,67.40
2022-10-01T18:43:30.299Z,68.72
2022-10-01T18:48:51.579Z,70.89
2022-10-01T18:54:19.546Z,72.60
2022-10-01T18:59:30.536Z,72.25
2022-10-01T19:04:35.727Z,70.84
2022-10-01T19:10:03.602Z,70.12
2022-10-01T19:15:13.894Z,69.26
2022-10-01T19:20:33.495Z,69.68
2022-10-01T19:31:30.899Z,69.52
2022-10-01T19:36:39.975Z,69.03
2022-10-01T19:41:50.452Z,69.40
2022-10-01T19:47:01.754Z,69.82
2022-10-01T19:52:12.164Z,70.13
2022-10-01T19:57:18.719Z,70.13
2022-10-01T20:02:32.376Z,70.75
2022-10-01T20:07:35.227Z,71.64
2022-10-01T20:12:44.553Z,72.64
2022-10-01T20:18:08.593Z,73.48
2022-10-01T20:23:11.250Z,74.01
2022-10-01T20:28:40.424Z,73.88
2022-10-01T20:33:49.292Z,73.37
2022-10-01T20:39:04.133Z,73.61
2022-10-01T20:44:15.817Z,74.26
2022-10-01T20:49:18.786Z,74.25
2022-10-01T20:54:25.341Z,74.76
2022-10-01T20:59:35.040Z,74.90
2022-10-01T21:04:43.098Z,75.64
2022-10-01T21:09:48.214Z,75.64
2022-10-01T21:14:55.231Z,76.50
2022-10-01T21:20:03.910Z,76.07
2022-10-01T21:25:15.086Z,76.24
2022-10-01T21:30:21.152Z,76.16
2022-10-01T21:35:32.645Z,75.34
2022-10-01T21:40:47.664Z,75.88
2022-10-01T21:46:03.099Z,77.04
2022-10-01T21:51:27.691Z,78.03
2022-10-01T21:56:41.365Z,78.43
2022-10-01T22:02:04.659Z,78.56
2022-10-01T22:07:15.816Z,79.09
2022-10-01T22:12:21.010Z,79.82
2022-10-01T22:17:33.118Z,79.93
2022-10-01T22:22:41.600Z,79.70
2022-10-01T22:33:10.116Z,78.33
2022-10-01T22:38:39.313Z,78.87
2022-10-01T22:43:46.072Z,78.06
2022-10-01T22:48:49.244Z,78.39
2022-10-01T22:54:09.398Z,78.98
2022-10-01T22:59:14.434Z,79.64
2022-10-01T23:04:32.091Z,79.57
2022-10-01T23:09:56.120Z,80.07
2022-10-01T23:15:03.678Z,81.13
2022-10-01T23:20:12.616Z,81.10
2022-10-01T23:25:38.311Z,80.30
2022-10-01T23:30:49.168Z,82.04
2022-10-01T23:36:13.606Z,81.84
2022-10-01T23:41:58.852Z,81.38
2022-10-01T23:47:05.083Z,81.75
2022-10-01T23:52:16.979Z,82.54
2022-10-01T23:57:39.182Z,82.22
